sensor_id;sensor_type;location;lat;lon;timestamp;P1;durP1;ratioP1;P2;durP2;ratioP2
80510;SDS011;69840;53.040;8.600;2023-05-21T00:01:58;4.90;;;2.83;;
80510;SDS011;69840;53.040;8.600;2023-05-21T00:06:11;5.18;;;2.38;;
80510;SDS011;69840;53.040;8.600;2023-05-21T00:10:24;5.03;;;2.83;;
80510;SDS011;69840;53.040;8.600;2023-05-21T00:14:36;4.72;;;2.42;;
80510;SDS011;69840;53.040;8.600;2023-05-21T00:18:49;5.15;;;2.45;;
80510;SDS011;69840;53.040;8.600;2023-05-21T00:23:01;5.47;;;2.40;;
80510;SDS011;69840;53.040;8.600;2023-05-21T00:27:14;10.00;;;2.72;;
80510;SDS011;69840;53.040;8.600;2023-05-21T00:31:27;7.30;;;2.30;;
80510;SDS011;69840;53.040;8.600;2023-05-21T00:35:39;7.07;;;2.00;;
80510;SDS011;69840;53.040;8.600;2023-05-21T00:39:52;4.28;;;1.95;;
80510;SDS011;69840;53.040;8.600;2023-05-21T00:44:05;3.65;;;1.90;;
80510;SDS011;69840;53.040;8.600;2023-05-21T00:48:18;6.25;;;3.15;;
80510;SDS011;69840;53.040;8.600;2023-05-21T00:52:32;4.28;;;3.25;;
80510;SDS011;69840;53.040;8.600;2023-05-21T00:56:44;8.13;;;3.10;;
80510;SDS011;69840;53.040;8.600;2023-05-21T01:00:57;12.30;;;2.28;;
80510;SDS011;69840;53.040;8.600;2023-05-21T01:05:10;5.43;;;1.83;;
80510;SDS011;69840;53.040;8.600;2023-05-21T01:09:26;4.35;;;2.35;;
80510;SDS011;69840;53.040;8.600;2023-05-21T01:13:39;2.67;;;1.98;;
80510;SDS011;69840;53.040;8.600;2023-05-21T01:17:53;4.28;;;2.10;;
80510;SDS011;69840;53.040;8.600;2023-05-21T01:22:06;6.53;;;1.90;;
80510;SDS011;69840;53.040;8.600;2023-05-21T01:26:19;4.90;;;1.88;;
80510;SDS011;69840;53.040;8.600;2023-05-21T01:30:32;5.45;;;2.25;;
80510;SDS011;69840;53.040;8.600;2023-05-21T01:35:04;5.63;;;2.72;;
80510;SDS011;69840;53.040;8.600;2023-05-21T01:39:22;10.85;;;2.45;;
80510;SDS011;69840;53.040;8.600;2023-05-21T01:43:49;4.82;;;2.30;;
80510;SDS011;69840;53.040;8.600;2023-05-21T01:48:04;3.28;;;1.80;;
80510;SDS011;69840;53.040;8.600;2023-05-21T01:52:19;9.95;;;4.30;;
80510;SDS011;69840;53.040;8.600;2023-05-21T01:56:32;7.65;;;3.03;;
80510;SDS011;69840;53.040;8.600;2023-05-21T02:00:44;3.15;;;1.35;;
80510;SDS011;69840;53.040;8.600;2023-05-21T02:04:57;4.28;;;2.00;;
80510;SDS011;69840;53.040;8.600;2023-05-21T02:09:10;5.00;;;1.70;;
80510;SDS011;69840;53.040;8.600;2023-05-21T02:13:22;3.95;;;2.08;;
80510;SDS011;69840;53.040;8.600;2023-05-21T02:17:36;4.30;;;1.98;;
80510;SDS011;69840;53.040;8.600;2023-05-21T02:21:48;7.90;;;2.15;;
80510;SDS011;69840;53.040;8.600;2023-05-21T02:26:01;5.65;;;2.65;;
80510;SDS011;69840;53.040;8.600;2023-05-21T02:30:14;4.22;;;2.50;;
80510;SDS011;69840;53.040;8.600;2023-05-21T02:34:26;4.22;;;2.22;;
80510;SDS011;69840;53.040;8.600;2023-05-21T02:38:39;7.07;;;2.20;;
80510;SDS011;69840;53.040;8.600;2023-05-21T02:42:52;4.28;;;2.00;;
80510;SDS011;69840;53.040;8.600;2023-05-21T02:47:06;5.55;;;3.20;;
80510;SDS011;69840;53.040;8.600;2023-05-21T02:51:18;7.03;;;2.35;;
80510;SDS011;69840;53.040;8.600;2023-05-21T02:55:31;5.70;;;2.17;;
80510;SDS011;69840;53.040;8.600;2023-05-21T02:59:45;3.75;;;1.67;;
80510;SDS011;69840;53.040;8.600;2023-05-21T03:03:57;5.70;;;2.08;;
80510;SDS011;69840;53.040;8.600;2023-05-21T03:08:10;4.50;;;1.95;;
80510;SDS011;69840;53.040;8.600;2023-05-21T03:12:23;7.80;;;2.50;;
80510;SDS011;69840;53.040;8.600;2023-05-21T03:16:36;8.30;;;3.33;;
80510;SDS011;69840;53.040;8.600;2023-05-21T03:20:48;7.25;;;2.45;;
80510;SDS011;69840;53.040;8.600;2023-05-21T03:25:01;6.13;;;1.85;;
80510;SDS011;69840;53.040;8.600;2023-05-21T03:29:13;5.43;;;2.72;;
80510;SDS011;69840;53.040;8.600;2023-05-21T03:33:28;5.22;;;1.95;;
80510;SDS011;69840;53.040;8.600;2023-05-21T03:37:41;3.70;;;1.88;;
80510;SDS011;69840;53.040;8.600;2023-05-21T03:41:54;5.75;;;2.15;;
80510;SDS011;69840;53.040;8.600;2023-05-21T03:46:23;6.40;;;3.15;;
80510;SDS011;69840;53.040;8.600;2023-05-21T03:50:51;6.15;;;2.53;;
80510;SDS011;69840;53.040;8.600;2023-05-21T03:55:04;4.82;;;1.85;;
80510;SDS011;69840;53.040;8.600;2023-05-21T03:59:17;7.95;;;2.25;;
80510;SDS011;69840;53.040;8.600;2023-05-21T04:03:30;9.63;;;2.78;;
80510;SDS011;69840;53.040;8.600;2023-05-21T04:07:43;4.35;;;2.47;;
80510;SDS011;69840;53.040;8.600;2023-05-21T04:11:55;6.15;;;3.10;;
80510;SDS011;69840;53.040;8.600;2023-05-21T04:16:08;5.60;;;2.28;;
80510;SDS011;69840;53.040;8.600;2023-05-21T04:20:20;8.60;;;2.10;;
80510;SDS011;69840;53.040;8.600;2023-05-21T04:24:33;4.95;;;2.25;;
80510;SDS011;69840;53.040;8.600;2023-05-21T04:28:58;4.22;;;2.00;;
80510;SDS011;69840;53.040;8.600;2023-05-21T04:33:11;3.83;;;2.20;;
80510;SDS011;69840;53.040;8.600;2023-05-21T04:37:28;11.20;;;2.35;;
80510;SDS011;69840;53.040;8.600;2023-05-21T04:41:40;6.50;;;2.40;;
80510;SDS011;69840;53.040;8.600;2023-05-21T04:45:53;3.35;;;2.08;;
80510;SDS011;69840;53.040;8.600;2023-05-21T04:50:06;2.95;;;1.98;;
80510;SDS011;69840;53.040;8.600;2023-05-21T04:54:19;4.00;;;2.45;;
80510;SDS011;69840;53.040;8.600;2023-05-21T04:58:32;4.13;;;1.88;;
80510;SDS011;69840;53.040;8.600;2023-05-21T05:02:45;5.25;;;1.90;;
80510;SDS011;69840;53.040;8.600;2023-05-21T05:06:57;6.60;;;2.47;;
80510;SDS011;69840;53.040;8.600;2023-05-21T05:11:10;5.65;;;2.20;;
80510;SDS011;69840;53.040;8.600;2023-05-21T05:15:24;5.35;;;2.30;;
80510;SDS011;69840;53.040;8.600;2023-05-21T05:19:37;6.35;;;2.13;;
80510;SDS011;69840;53.040;8.600;2023-05-21T05:23:49;6.00;;;2.03;;
80510;SDS011;69840;53.040;8.600;2023-05-21T05:28:03;4.72;;;2.42;;
80510;SDS011;69840;53.040;8.600;2023-05-21T05:32:16;3.42;;;2.33;;
80510;SDS011;69840;53.040;8.600;2023-05-21T05:36:28;4.88;;;2.15;;
80510;SDS011;69840;53.040;8.600;2023-05-21T05:40:41;3.92;;;1.92;;
80510;SDS011;69840;53.040;8.600;2023-05-21T05:44:54;6.50;;;2.80;;
80510;SDS011;69840;53.040;8.600;2023-05-21T05:49:07;5.90;;;2.33;;
80510;SDS011;69840;53.040;8.600;2023-05-21T05:53:19;6.30;;;2.10;;
80510;SDS011;69840;53.040;8.600;2023-05-21T05:57:32;5.53;;;1.90;;
80510;SDS011;69840;53.040;8.600;2023-05-21T06:01:50;3.42;;;1.63;;
80510;SDS011;69840;53.040;8.600;2023-05-21T06:06:03;8.82;;;2.47;;
80510;SDS011;69840;53.040;8.600;2023-05-21T06:10:17;4.53;;;2.30;;
80510;SDS011;69840;53.040;8.600;2023-05-21T06:14:29;5.00;;;2.25;;
80510;SDS011;69840;53.040;8.600;2023-05-21T06:18:42;3.83;;;2.10;;
80510;SDS011;69840;53.040;8.600;2023-05-21T06:22:54;6.85;;;2.10;;
80510;SDS011;69840;53.040;8.600;2023-05-21T06:27:07;5.78;;;2.53;;
80510;SDS011;69840;53.040;8.600;2023-05-21T06:31:19;6.32;;;2.72;;
80510;SDS011;69840;53.040;8.600;2023-05-21T06:35:33;6.00;;;2.25;;
80510;SDS011;69840;53.040;8.600;2023-05-21T06:39:45;6.22;;;2.65;;
80510;SDS011;69840;53.040;8.600;2023-05-21T06:43:58;5.68;;;2.70;;
80510;SDS011;69840;53.040;8.600;2023-05-21T06:48:43;5.50;;;2.50;;
80510;SDS011;69840;53.040;8.600;2023-05-21T06:52:55;5.45;;;2.55;;
80510;SDS011;69840;53.040;8.600;2023-05-21T06:57:08;7.60;;;2.78;;
80510;SDS011;69840;53.040;8.600;2023-05-21T07:01:21;4.90;;;2.58;;
80510;SDS011;69840;53.040;8.600;2023-05-21T07:05:34;5.85;;;2.63;;
80510;SDS011;69840;53.040;8.600;2023-05-21T07:09:47;6.78;;;2.50;;
80510;SDS011;69840;53.040;8.600;2023-05-21T07:14:01;6.35;;;3.58;;
80510;SDS011;69840;53.040;8.600;2023-05-21T07:18:17;6.13;;;2.72;;
80510;SDS011;69840;53.040;8.600;2023-05-21T07:22:30;6.20;;;3.28;;
80510;SDS011;69840;53.040;8.600;2023-05-21T07:26:42;4.50;;;2.60;;
80510;SDS011;69840;53.040;8.600;2023-05-21T07:30:56;7.03;;;2.78;;
80510;SDS011;69840;53.040;8.600;2023-05-21T07:35:15;7.00;;;3.83;;
80510;SDS011;69840;53.040;8.600;2023-05-21T07:39:28;8.68;;;3.70;;
80510;SDS011;69840;53.040;8.600;2023-05-21T07:43:40;12.52;;;3.80;;
80510;SDS011;69840;53.040;8.600;2023-05-21T07:47:53;7.80;;;4.05;;
80510;SDS011;69840;53.040;8.600;2023-05-21T07:52:06;8.02;;;3.88;;
80510;SDS011;69840;53.040;8.600;2023-05-21T07:56:18;8.40;;;4.07;;
80510;SDS011;69840;53.040;8.600;2023-05-21T08:00:34;12.95;;;4.10;;
80510;SDS011;69840;53.040;8.600;2023-05-21T08:04:55;9.70;;;3.80;;
80510;SDS011;69840;53.040;8.600;2023-05-21T08:09:08;6.88;;;3.90;;
80510;SDS011;69840;53.040;8.600;2023-05-21T08:13:21;8.65;;;4.63;;
80510;SDS011;69840;53.040;8.600;2023-05-21T08:17:34;9.32;;;4.40;;
80510;SDS011;69840;53.040;8.600;2023-05-21T08:21:47;8.32;;;4.78;;
80510;SDS011;69840;53.040;8.600;2023-05-21T08:26:00;9.57;;;5.20;;
80510;SDS011;69840;53.040;8.600;2023-05-21T08:30:14;12.73;;;5.75;;
80510;SDS011;69840;53.040;8.600;2023-05-21T08:34:27;10.80;;;5.00;;
80510;SDS011;69840;53.040;8.600;2023-05-21T08:38:53;11.77;;;5.72;;
80510;SDS011;69840;53.040;8.600;2023-05-21T08:43:27;10.38;;;5.50;;
80510;SDS011;69840;53.040;8.600;2023-05-21T08:47:41;11.65;;;5.57;;
80510;SDS011;69840;53.040;8.600;2023-05-21T08:51:55;11.00;;;5.82;;
80510;SDS011;69840;53.040;8.600;2023-05-21T08:56:09;12.25;;;5.75;;
80510;SDS011;69840;53.040;8.600;2023-05-21T09:00:30;11.23;;;6.03;;
80510;SDS011;69840;53.040;8.600;2023-05-21T09:04:45;9.55;;;5.38;;
80510;SDS011;69840;53.040;8.600;2023-05-21T09:09:01;13.70;;;6.97;;
80510;SDS011;69840;53.040;8.600;2023-05-21T09:13:25;14.23;;;6.60;;
80510;SDS011;69840;53.040;8.600;2023-05-21T09:17:40;12.40;;;7.28;;
80510;SDS011;69840;53.040;8.600;2023-05-21T09:22:15;13.05;;;7.07;;
80510;SDS011;69840;53.040;8.600;2023-05-21T09:26:28;11.82;;;6.70;;
80510;SDS011;69840;53.040;8.600;2023-05-21T09:30:50;14.85;;;6.65;;
80510;SDS011;69840;53.040;8.600;2023-05-21T09:35:10;14.75;;;7.43;;
80510;SDS011;69840;53.040;8.600;2023-05-21T09:39:27;14.07;;;8.13;;
80510;SDS011;69840;53.040;8.600;2023-05-21T09:43:41;13.57;;;7.47;;
80510;SDS011;69840;53.040;8.600;2023-05-21T09:47:55;12.45;;;7.97;;
80510;SDS011;69840;53.040;8.600;2023-05-21T09:52:08;14.02;;;9.43;;
80510;SDS011;69840;53.040;8.600;2023-05-21T09:56:21;16.80;;;7.50;;
80510;SDS011;69840;53.040;8.600;2023-05-21T10:00:43;12.98;;;7.30;;
80510;SDS011;69840;53.040;8.600;2023-05-21T10:04:55;16.98;;;7.65;;
80510;SDS011;69840;53.040;8.600;2023-05-21T10:09:09;12.02;;;7.32;;
80510;SDS011;69840;53.040;8.600;2023-05-21T10:13:22;14.60;;;7.38;;
80510;SDS011;69840;53.040;8.600;2023-05-21T10:17:35;14.93;;;7.93;;
80510;SDS011;69840;53.040;8.600;2023-05-21T10:21:50;18.83;;;8.65;;
80510;SDS011;69840;53.040;8.600;2023-05-21T10:26:03;12.70;;;7.25;;
80510;SDS011;69840;53.040;8.600;2023-05-21T10:30:18;13.68;;;7.22;;
80510;SDS011;69840;53.040;8.600;2023-05-21T10:34:32;15.25;;;8.27;;
80510;SDS011;69840;53.040;8.600;2023-05-21T10:38:46;12.27;;;7.35;;
80510;SDS011;69840;53.040;8.600;2023-05-21T10:43:18;14.88;;;7.70;;
80510;SDS011;69840;53.040;8.600;2023-05-21T10:47:57;11.68;;;7.07;;
80510;SDS011;69840;53.040;8.600;2023-05-21T11:01:32;13.05;;;7.40;;
80510;SDS011;69840;53.040;8.600;2023-05-21T11:05:54;15.25;;;7.88;;
80510;SDS011;69840;53.040;8.600;2023-05-21T11:14:55;13.25;;;7.80;;
80510;SDS011;69840;53.040;8.600;2023-05-21T11:19:15;11.88;;;7.93;;
80510;SDS011;69840;53.040;8.600;2023-05-21T11:23:47;13.40;;;7.45;;
80510;SDS011;69840;53.040;8.600;2023-05-21T11:28:06;13.52;;;7.28;;
80510;SDS011;69840;53.040;8.600;2023-05-21T11:32:18;13.15;;;6.72;;
80510;SDS011;69840;53.040;8.600;2023-05-21T11:36:31;13.57;;;7.63;;
80510;SDS011;69840;53.040;8.600;2023-05-21T11:40:53;12.98;;;7.10;;
80510;SDS011;69840;53.040;8.600;2023-05-21T11:45:06;12.57;;;7.00;;
80510;SDS011;69840;53.040;8.600;2023-05-21T11:49:19;11.60;;;6.47;;
80510;SDS011;69840;53.040;8.600;2023-05-21T11:53:33;12.23;;;7.90;;
80510;SDS011;69840;53.040;8.600;2023-05-21T11:57:45;12.60;;;6.97;;
80510;SDS011;69840;53.040;8.600;2023-05-21T12:01:59;16.08;;;7.88;;
80510;SDS011;69840;53.040;8.600;2023-05-21T12:06:12;14.30;;;7.38;;
80510;SDS011;69840;53.040;8.600;2023-05-21T12:10:24;10.68;;;7.35;;
80510;SDS011;69840;53.040;8.600;2023-05-21T12:14:37;12.90;;;7.15;;
80510;SDS011;69840;53.040;8.600;2023-05-21T12:18:50;11.27;;;7.90;;
80510;SDS011;69840;53.040;8.600;2023-05-21T12:23:03;14.38;;;7.35;;
80510;SDS011;69840;53.040;8.600;2023-05-21T12:27:15;10.32;;;6.70;;
80510;SDS011;69840;53.040;8.600;2023-05-21T12:31:28;12.35;;;6.28;;
80510;SDS011;69840;53.040;8.600;2023-05-21T12:35:41;10.13;;;6.47;;
80510;SDS011;69840;53.040;8.600;2023-05-21T12:39:57;14.32;;;7.35;;
80510;SDS011;69840;53.040;8.600;2023-05-21T12:44:11;14.82;;;8.82;;
80510;SDS011;69840;53.040;8.600;2023-05-21T12:48:24;11.05;;;6.93;;
80510;SDS011;69840;53.040;8.600;2023-05-21T12:52:38;10.82;;;7.68;;
80510;SDS011;69840;53.040;8.600;2023-05-21T12:56:51;10.85;;;6.88;;
80510;SDS011;69840;53.040;8.600;2023-05-21T13:01:05;9.45;;;6.45;;
80510;SDS011;69840;53.040;8.600;2023-05-21T13:05:21;10.88;;;7.30;;
80510;SDS011;69840;53.040;8.600;2023-05-21T13:09:33;11.23;;;6.68;;
80510;SDS011;69840;53.040;8.600;2023-05-21T13:13:46;10.20;;;7.22;;
80510;SDS011;69840;53.040;8.600;2023-05-21T13:17:58;9.88;;;6.85;;
80510;SDS011;69840;53.040;8.600;2023-05-21T13:22:11;10.27;;;7.57;;
80510;SDS011;69840;53.040;8.600;2023-05-21T13:26:23;10.13;;;7.68;;
80510;SDS011;69840;53.040;8.600;2023-05-21T13:30:36;13.95;;;8.05;;
80510;SDS011;69840;53.040;8.600;2023-05-21T13:34:49;9.85;;;6.00;;
80510;SDS011;69840;53.040;8.600;2023-05-21T13:39:01;10.55;;;7.65;;
80510;SDS011;69840;53.040;8.600;2023-05-21T13:43:14;9.15;;;6.55;;
80510;SDS011;69840;53.040;8.600;2023-05-21T13:47:26;14.27;;;7.53;;
80510;SDS011;69840;53.040;8.600;2023-05-21T13:51:39;10.52;;;7.03;;
80510;SDS011;69840;53.040;8.600;2023-05-21T13:55:51;14.35;;;7.88;;
80510;SDS011;69840;53.040;8.600;2023-05-21T14:00:04;9.27;;;6.65;;
80510;SDS011;69840;53.040;8.600;2023-05-21T14:04:18;8.60;;;7.03;;
80510;SDS011;69840;53.040;8.600;2023-05-21T14:08:31;16.98;;;7.65;;
80510;SDS011;69840;53.040;8.600;2023-05-21T14:12:44;11.30;;;7.82;;
80510;SDS011;69840;53.040;8.600;2023-05-21T14:16:57;10.82;;;7.03;;
80510;SDS011;69840;53.040;8.600;2023-05-21T14:21:09;10.90;;;7.50;;
80510;SDS011;69840;53.040;8.600;2023-05-21T14:25:22;13.05;;;7.72;;
80510;SDS011;69840;53.040;8.600;2023-05-21T14:29:35;11.68;;;7.15;;
80510;SDS011;69840;53.040;8.600;2023-05-21T14:33:47;10.52;;;7.22;;
80510;SDS011;69840;53.040;8.600;2023-05-21T14:38:00;11.70;;;7.38;;
80510;SDS011;69840;53.040;8.600;2023-05-21T14:42:12;9.88;;;6.60;;
80510;SDS011;69840;53.040;8.600;2023-05-21T14:46:25;11.20;;;6.95;;
80510;SDS011;69840;53.040;8.600;2023-05-21T14:50:38;11.13;;;8.60;;
80510;SDS011;69840;53.040;8.600;2023-05-21T14:54:51;11.85;;;7.57;;
80510;SDS011;69840;53.040;8.600;2023-05-21T14:59:03;10.95;;;7.18;;
80510;SDS011;69840;53.040;8.600;2023-05-21T15:03:16;11.25;;;6.97;;
80510;SDS011;69840;53.040;8.600;2023-05-21T15:07:28;10.70;;;7.53;;
80510;SDS011;69840;53.040;8.600;2023-05-21T15:11:41;10.55;;;7.65;;
80510;SDS011;69840;53.040;8.600;2023-05-21T15:15:53;12.85;;;6.70;;
80510;SDS011;69840;53.040;8.600;2023-05-21T15:20:06;13.20;;;7.15;;
80510;SDS011;69840;53.040;8.600;2023-05-21T15:24:19;8.07;;;5.88;;
80510;SDS011;69840;53.040;8.600;2023-05-21T15:28:31;12.00;;;7.00;;
80510;SDS011;69840;53.040;8.600;2023-05-21T15:32:44;10.57;;;6.25;;
80510;SDS011;69840;53.040;8.600;2023-05-21T15:36:56;10.02;;;6.57;;
80510;SDS011;69840;53.040;8.600;2023-05-21T15:41:09;8.18;;;5.72;;
80510;SDS011;69840;53.040;8.600;2023-05-21T15:45:22;10.32;;;7.10;;
80510;SDS011;69840;53.040;8.600;2023-05-21T15:49:35;9.65;;;6.50;;
80510;SDS011;69840;53.040;8.600;2023-05-21T15:53:48;9.27;;;6.43;;
80510;SDS011;69840;53.040;8.600;2023-05-21T15:58:01;10.20;;;6.90;;
80510;SDS011;69840;53.040;8.600;2023-05-21T16:02:14;7.97;;;5.82;;
80510;SDS011;69840;53.040;8.600;2023-05-21T16:06:28;19.95;;;7.22;;
80510;SDS011;69840;53.040;8.600;2023-05-21T16:10:40;10.35;;;7.03;;
80510;SDS011;69840;53.040;8.600;2023-05-21T16:14:53;10.32;;;6.57;;
80510;SDS011;69840;53.040;8.600;2023-05-21T16:19:05;12.80;;;6.88;;
80510;SDS011;69840;53.040;8.600;2023-05-21T16:23:18;8.73;;;6.00;;
80510;SDS011;69840;53.040;8.600;2023-05-21T16:27:30;9.45;;;6.30;;
80510;SDS011;69840;53.040;8.600;2023-05-21T16:31:43;10.55;;;6.80;;
80510;SDS011;69840;53.040;8.600;2023-05-21T16:35:55;10.60;;;7.00;;
80510;SDS011;69840;53.040;8.600;2023-05-21T16:40:08;10.60;;;6.88;;
80510;SDS011;69840;53.040;8.600;2023-05-21T16:44:21;9.90;;;6.28;;
80510;SDS011;69840;53.040;8.600;2023-05-21T16:48:33;10.80;;;6.63;;
80510;SDS011;69840;53.040;8.600;2023-05-21T16:52:46;10.38;;;6.35;;
80510;SDS011;69840;53.040;8.600;2023-05-21T16:56:59;12.50;;;7.00;;
80510;SDS011;69840;53.040;8.600;2023-05-21T17:01:11;10.38;;;6.18;;
80510;SDS011;69840;53.040;8.600;2023-05-21T17:05:24;10.45;;;5.82;;
80510;SDS011;69840;53.040;8.600;2023-05-21T17:09:36;10.10;;;6.40;;
80510;SDS011;69840;53.040;8.600;2023-05-21T17:13:50;9.68;;;6.85;;
80510;SDS011;69840;53.040;8.600;2023-05-21T17:18:02;11.18;;;6.63;;
80510;SDS011;69840;53.040;8.600;2023-05-21T17:22:15;10.50;;;7.18;;
80510;SDS011;69840;53.040;8.600;2023-05-21T17:26:27;10.77;;;6.85;;
80510;SDS011;69840;53.040;8.600;2023-05-21T17:30:40;11.80;;;6.28;;
80510;SDS011;69840;53.040;8.600;2023-05-21T17:34:52;11.38;;;6.35;;
80510;SDS011;69840;53.040;8.600;2023-05-21T17:39:05;9.20;;;6.45;;
80510;SDS011;69840;53.040;8.600;2023-05-21T17:43:18;12.77;;;8.05;;
80510;SDS011;69840;53.040;8.600;2023-05-21T17:47:30;10.43;;;7.00;;
80510;SDS011;69840;53.040;8.600;2023-05-21T17:51:43;14.32;;;8.75;;
80510;SDS011;69840;53.040;8.600;2023-05-21T17:55:56;10.95;;;7.72;;
80510;SDS011;69840;53.040;8.600;2023-05-21T18:00:09;11.95;;;7.97;;
80510;SDS011;69840;53.040;8.600;2023-05-21T18:04:24;10.55;;;7.45;;
80510;SDS011;69840;53.040;8.600;2023-05-21T18:08:37;10.25;;;7.50;;
80510;SDS011;69840;53.040;8.600;2023-05-21T18:12:50;10.00;;;7.05;;
80510;SDS011;69840;53.040;8.600;2023-05-21T18:17:02;10.68;;;7.35;;
80510;SDS011;69840;53.040;8.600;2023-05-21T18:21:15;11.07;;;7.55;;
80510;SDS011;69840;53.040;8.600;2023-05-21T18:25:28;9.30;;;6.85;;
80510;SDS011;69840;53.040;8.600;2023-05-21T18:29:40;10.75;;;7.15;;
80510;SDS011;69840;53.040;8.600;2023-05-21T18:33:53;15.77;;;8.15;;
80510;SDS011;69840;53.040;8.600;2023-05-21T18:38:05;9.32;;;6.93;;
80510;SDS011;69840;53.040;8.600;2023-05-21T18:42:18;9.88;;;6.65;;
80510;SDS011;69840;53.040;8.600;2023-05-21T18:46:30;11.23;;;7.57;;
80510;SDS011;69840;53.040;8.600;2023-05-21T18:50:43;12.15;;;7.22;;
80510;SDS011;69840;53.040;8.600;2023-05-21T18:54:55;11.32;;;7.43;;
80510;SDS011;69840;53.040;8.600;2023-05-21T18:59:08;12.85;;;8.02;;
80510;SDS011;69840;53.040;8.600;2023-05-21T19:03:20;11.35;;;6.93;;
80510;SDS011;69840;53.040;8.600;2023-05-21T19:07:33;13.82;;;7.75;;
80510;SDS011;69840;53.040;8.600;2023-05-21T19:11:45;13.32;;;9.60;;
80510;SDS011;69840;53.040;8.600;2023-05-21T19:15:58;12.63;;;8.30;;
80510;SDS011;69840;53.040;8.600;2023-05-21T19:20:19;10.32;;;7.68;;
80510;SDS011;69840;53.040;8.600;2023-05-21T19:24:34;10.95;;;7.32;;
80510;SDS011;69840;53.040;8.600;2023-05-21T19:28:46;12.73;;;9.55;;
80510;SDS011;69840;53.040;8.600;2023-05-21T19:32:59;9.88;;;7.55;;
80510;SDS011;69840;53.040;8.600;2023-05-21T19:37:11;11.65;;;7.47;;
80510;SDS011;69840;53.040;8.600;2023-05-21T19:41:24;12.07;;;8.75;;
80510;SDS011;69840;53.040;8.600;2023-05-21T19:45:36;11.43;;;7.07;;
80510;SDS011;69840;53.040;8.600;2023-05-21T19:49:49;13.13;;;7.00;;
80510;SDS011;69840;53.040;8.600;2023-05-21T19:54:01;11.82;;;6.63;;
80510;SDS011;69840;53.040;8.600;2023-05-21T19:58:14;10.57;;;6.80;;
80510;SDS011;69840;53.040;8.600;2023-05-21T20:02:27;11.43;;;7.13;;
80510;SDS011;69840;53.040;8.600;2023-05-21T20:06:40;9.70;;;6.63;;
80510;SDS011;69840;53.040;8.600;2023-05-21T20:10:52;13.00;;;6.60;;
80510;SDS011;69840;53.040;8.600;2023-05-21T20:15:05;11.93;;;7.45;;
80510;SDS011;69840;53.040;8.600;2023-05-21T20:19:18;11.68;;;6.78;;
80510;SDS011;69840;53.040;8.600;2023-05-21T20:23:30;16.65;;;7.05;;
80510;SDS011;69840;53.040;8.600;2023-05-21T20:27:43;10.73;;;7.05;;
80510;SDS011;69840;53.040;8.600;2023-05-21T20:31:56;12.68;;;6.65;;
80510;SDS011;69840;53.040;8.600;2023-05-21T20:36:08;14.50;;;7.38;;
80510;SDS011;69840;53.040;8.600;2023-05-21T20:40:21;12.10;;;7.13;;
80510;SDS011;69840;53.040;8.600;2023-05-21T20:44:33;11.07;;;7.65;;
80510;SDS011;69840;53.040;8.600;2023-05-21T20:48:46;12.43;;;8.07;;
80510;SDS011;69840;53.040;8.600;2023-05-21T20:52:58;8.70;;;6.50;;
80510;SDS011;69840;53.040;8.600;2023-05-21T20:57:11;9.65;;;7.03;;
80510;SDS011;69840;53.040;8.600;2023-05-21T21:01:23;12.43;;;6.85;;
80510;SDS011;69840;53.040;8.600;2023-05-21T21:05:36;14.57;;;6.80;;
80510;SDS011;69840;53.040;8.600;2023-05-21T21:09:49;13.15;;;7.20;;
80510;SDS011;69840;53.040;8.600;2023-05-21T21:14:01;12.98;;;7.53;;
80510;SDS011;69840;53.040;8.600;2023-05-21T21:18:14;12.50;;;7.55;;
80510;SDS011;69840;53.040;8.600;2023-05-21T21:22:27;11.13;;;7.32;;
80510;SDS011;69840;53.040;8.600;2023-05-21T21:26:39;14.18;;;8.00;;
80510;SDS011;69840;53.040;8.600;2023-05-21T21:30:52;13.15;;;6.70;;
80510;SDS011;69840;53.040;8.600;2023-05-21T21:35:04;11.48;;;6.95;;
80510;SDS011;69840;53.040;8.600;2023-05-21T21:39:17;11.98;;;7.60;;
80510;SDS011;69840;53.040;8.600;2023-05-21T21:43:29;11.52;;;7.78;;
80510;SDS011;69840;53.040;8.600;2023-05-21T21:47:42;11.73;;;7.50;;
80510;SDS011;69840;53.040;8.600;2023-05-21T21:51:54;12.27;;;7.03;;
80510;SDS011;69840;53.040;8.600;2023-05-21T21:56:07;11.25;;;6.70;;
80510;SDS011;69840;53.040;8.600;2023-05-21T22:00:19;10.90;;;7.28;;
80510;SDS011;69840;53.040;8.600;2023-05-21T22:04:32;9.50;;;6.88;;
80510;SDS011;69840;53.040;8.600;2023-05-21T22:08:45;11.68;;;7.22;;
80510;SDS011;69840;53.040;8.600;2023-05-21T22:12:57;10.40;;;7.10;;
80510;SDS011;69840;53.040;8.600;2023-05-21T22:17:09;14.93;;;7.65;;
80510;SDS011;69840;53.040;8.600;2023-05-21T22:21:22;13.10;;;7.72;;
80510;SDS011;69840;53.040;8.600;2023-05-21T22:25:35;11.90;;;7.32;;
80510;SDS011;69840;53.040;8.600;2023-05-21T22:29:47;11.88;;;8.93;;
80510;SDS011;69840;53.040;8.600;2023-05-21T22:34:00;10.65;;;6.88;;
80510;SDS011;69840;53.040;8.600;2023-05-21T22:38:12;11.80;;;7.18;;
80510;SDS011;69840;53.040;8.600;2023-05-21T22:42:28;13.25;;;8.25;;
80510;SDS011;69840;53.040;8.600;2023-05-21T22:46:40;12.65;;;7.85;;
80510;SDS011;69840;53.040;8.600;2023-05-21T22:50:53;11.63;;;7.38;;
80510;SDS011;69840;53.040;8.600;2023-05-21T22:55:05;12.55;;;7.10;;
80510;SDS011;69840;53.040;8.600;2023-05-21T22:59:18;10.95;;;7.07;;
80510;SDS011;69840;53.040;8.600;2023-05-21T23:03:30;10.65;;;6.88;;
80510;SDS011;69840;53.040;8.600;2023-05-21T23:07:43;10.25;;;6.80;;
80510;SDS011;69840;53.040;8.600;2023-05-21T23:11:55;12.20;;;6.65;;
80510;SDS011;69840;53.040;8.600;2023-05-21T23:16:08;8.85;;;6.55;;
80510;SDS011;69840;53.040;8.600;2023-05-21T23:20:20;9.05;;;5.97;;
80510;SDS011;69840;53.040;8.600;2023-05-21T23:24:33;11.55;;;6.95;;
80510;SDS011;69840;53.040;8.600;2023-05-21T23:28:45;8.32;;;5.55;;
80510;SDS011;69840;53.040;8.600;2023-05-21T23:32:58;9.15;;;5.88;;
80510;SDS011;69840;53.040;8.600;2023-05-21T23:37:11;7.75;;;5.65;;
80510;SDS011;69840;53.040;8.600;2023-05-21T23:41:23;8.07;;;5.95;;
80510;SDS011;69840;53.040;8.600;2023-05-21T23:45:36;9.82;;;6.22;;
80510;SDS011;69840;53.040;8.600;2023-05-21T23:49:48;9.13;;;6.22;;
80510;SDS011;69840;53.040;8.600;2023-05-21T23:54:01;9.48;;;5.13;;
80510;SDS011;69840;53.040;8.600;2023-05-21T23:58:14;13.73;;;6.15;;
